Aviation Digital Data Service (ADDS)

Output produced by TAFs form (0337 UTC 12 February 2016)
found at http://aviationweather.gov/adds/tafs/
 
KABQ 112336Z 1200/1224 32007KT P6SM SKC 
     FM120200 01006KT P6SM SKC 
     FM122000 VRB06KT P6SM SKC